Calvin, Texas
Current Conditions -  °F | °C
As of 3:35 PM on Monday 24 Nov 2014 (Local Time) from KGYB Reporting Station
Clear Clear  
Wind Chill: 63°   Ceiling: Unl
Heat Index: 63°   Visibility: 10mi
Dew Point: 28°   Wind: 8mph
Humidity: 26%   Direction: 360°N
Pressure: 30.07"   Gusts: NA
Location:  30.1644°N, 97.2747°W
Report Text: KGYB 242135Z AUTO 36007KT 340V040 10SM CLR 17/M02 A3007 RMK AO2 T01711025
Loading
Personal Weather Stations






























Interactive Weather Map New forecast layout! Learn more

10-Day Weather Forecast

Advertisements
Track Severe Weather on mobile